Time;durP1;ratioP1;P1;durP2;ratioP2;P2;SDS_P1;SDS_P2;PMS_P1;PMS_P2;Temp;Humidity;BMP_temperature;BMP_pressure;BME280_temperature;BME280_humidity;BME280_pressure;Samples;Min_cycle;Max_cycle;Signal;HPM_P1;HPM_P2
2023/09/07 00:00:46;;;;;;;;;;;;;;;;;;6239931;28;19920;-76
2023/09/07 00:03:47;;;;;;;;;;;;;;;;;;6240402;28;20020;-77
2023/09/07 00:06:49;;;;;;;;;;;;;;;;;;6239325;28;19920;-77
2023/09/07 00:09:49;;;;;;;;;;;;;;;;;;6237798;28;19931;-76
2023/09/07 00:12:49;;;;;;;;;;;;;;;;;;6240355;28;20707;-77
2023/09/07 00:15:49;;;;;;;;;;;;;;;;;;6239122;28;20016;-77
2023/09/07 00:18:50;;;;;;;;;;;;;;;;;;6238422;28;21065;-77
2023/09/07 00:21:51;;;;;;;;;;;;;;;;;;6233390;28;19960;-75
2023/09/07 00:24:51;;;;;;;;;;;;;;;;;;6240033;28;19936;-75
2023/09/07 00:27:52;;;;;;;;;;;;;;;;;;6255265;28;19921;-76
2023/09/07 00:30:52;;;;;;;;;;;;;;;;;;6248163;28;20476;-76
2023/09/07 00:33:52;;;;;;;;;;;;;;;;;;6258241;28;19944;-76
2023/09/07 00:36:52;;;;;;;;;;;;;;;;;;6241670;28;19964;-76
2023/09/07 00:39:52;;;;;;;;;;;;;;;;;;6243244;28;19917;-79
2023/09/07 00:42:52;;;;;;;;;;;;;;;;;;6243093;28;19921;-75
2023/09/07 00:45:53;;;;;;;;;;;;;;;;;;6238731;28;19921;-75
2023/09/07 00:48:53;;;;;;;;;;;;;;;;;;6256902;28;19921;-77
2023/09/07 00:51:53;;;;;;;;;;;;;;;;;;6239889;28;19925;-76
2023/09/07 00:54:53;;;;;;;;;;;;;;;;;;6238667;28;19921;-76
2023/09/07 00:57:53;;;;;;;;;;;;;;;;;;6241530;28;20043;-75
2023/09/07 01:00:53;;;;;;;;;;;;;;;;;;6218415;28;19925;-75
2023/09/07 01:03:57;;;;;;;;;;;;;;;;;;6212229;28;20302;-75
2023/09/07 01:06:59;;;;;;;;;;;;;;;;;;6211018;28;21292;-76
2023/09/07 01:10:00;;;;;;;;;;;;;;;;;;5864189;28;10000416;-76
2023/09/07 01:13:00;;;;;;;;;;;;;;;;;;6215185;28;19916;-76
2023/09/07 01:16:00;;;;;;;;;;;;;;;;;;6214803;28;19925;-76
2023/09/07 01:19:01;;;;;;;;;;;;;;;;;;6214949;28;19933;-76
2023/09/07 01:22:01;;;;;;;;;;;;;;;;;;6200333;28;20399;-76
2023/09/07 01:25:01;;;;;;;;;;;;;;;;;;6217888;28;20302;-77
2023/09/07 01:28:02;;;;;;;;;;;;;;;;;;6214618;28;19978;-76
2023/09/07 01:31:02;;;;;;;;;;;;;;;;;;6228873;28;19922;-77
2023/09/07 01:34:02;;;;;;;;;;;;;;;;;;6213758;28;19976;-77
2023/09/07 01:37:02;;;;;;;;;;;;;;;;;;6212631;28;19929;-77
2023/09/07 01:40:07;;;;;;;;;;;;;;;;;;6213126;28;19925;-76
2023/09/07 01:43:07;;;;;;;;;;;;;;;;;;6212808;28;19922;-77
2023/09/07 01:46:07;;;;;;;;;;;;;;;;;;6229053;28;19928;-76
2023/09/07 01:49:07;;;;;;;;;;;;;;;;;;6202196;28;19921;-76
2023/09/07 01:52:07;;;;;;;;;;;;;;;;;;6210362;28;19929;-76
2023/09/07 01:55:07;;;;;;;;;;;;;;;;;;6214259;28;19973;-77
2023/09/07 01:58:08;;;;;;;;;;;;;;;;;;6230561;28;19925;-76
2023/09/07 02:01:08;;;;;;;;;;;;;;;;;;6232697;28;20298;-76
2023/09/07 02:04:08;;;;;;;;;;;;;;;;;;6238292;28;19946;-77
2023/09/07 02:07:08;;;;;;;;;;;;;;;;;;6237737;28;19917;-77
2023/09/07 02:10:09;;;;;;;;;;;;;;;;;;6240341;28;19917;-77
2023/09/07 02:13:11;;;;;;;;;;;;;;;;;;6239449;28;19980;-77
2023/09/07 02:16:11;;;;;;;;;;;;;;;;;;6237584;28;19928;-77
2023/09/07 02:19:12;;;;;;;;;;;;;;;;;;6237909;28;19999;-76
2023/09/07 02:22:12;;;;;;;;;;;;;;;;;;6236248;28;20015;-75
2023/09/07 02:25:12;;;;;;;;;;;;;;;;;;6240528;28;19913;-77
2023/09/07 02:28:12;;;;;;;;;;;;;;;;;;6250804;28;19921;-76
2023/09/07 02:31:12;;;;;;;;;;;;;;;;;;6233171;28;20661;-76
2023/09/07 02:34:12;;;;;;;;;;;;;;;;;;6250316;28;19986;-76
2023/09/07 02:37:14;;;;;;;;;;;;;;;;;;6238657;28;19917;-76
2023/09/07 02:40:15;;;;;;;;;;;;;;;;;;6255487;28;19921;-76
2023/09/07 02:43:16;;;;;;;;;;;;;;;;;;6249439;28;19921;-76
2023/09/07 02:46:16;;;;;;;;;;;;;;;;;;6241862;28;19937;-75
2023/09/07 02:49:17;;;;;;;;;;;;;;;;;;6238104;28;20425;-76
2023/09/07 02:52:17;;;;;;;;;;;;;;;;;;6251124;28;20043;-76
2023/09/07 02:55:17;;;;;;;;;;;;;;;;;;6238531;28;19992;-76
2023/09/07 02:58:17;;;;;;;;;;;;;;;;;;6241379;28;19925;-75
2023/09/07 03:01:20;;;;;;;;;;;;;;;;;;6233545;28;19921;-76
2023/09/07 03:04:20;;;;;;;;;;;;;;;;;;6255689;28;19967;-76
2023/09/07 03:07:22;;;;;;;;;;;;;;;;;;6239872;28;20723;-76
2023/09/07 03:10:22;;;;;;;;;;;;;;;;;;5891631;28;10000649;-75
2023/09/07 03:13:22;;;;;;;;;;;;;;;;;;6237172;28;19920;-76
2023/09/07 03:16:22;;;;;;;;;;;;;;;;;;6236558;28;19970;-76
2023/09/07 03:19:22;;;;;;;;;;;;;;;;;;6250552;28;19920;-76
2023/09/07 03:22:23;;;;;;;;;;;;;;;;;;6237312;28;19994;-77
2023/09/07 03:25:23;;;;;;;;;;;;;;;;;;6239380;28;19975;-76
2023/09/07 03:28:23;;;;;;;;;;;;;;;;;;6241593;28;20175;-75
2023/09/07 03:31:23;;;;;;;;;;;;;;;;;;6234710;28;20363;-76
2023/09/07 03:34:23;;;;;;;;;;;;;;;;;;6235910;28;19920;-76
2023/09/07 03:37:23;;;;;;;;;;;;;;;;;;6253453;28;19979;-75
2023/09/07 03:40:23;;;;;;;;;;;;;;;;;;6239420;28;20006;-75
2023/09/07 03:43:23;;;;;;;;;;;;;;;;;;6238233;28;19963;-76
2023/09/07 03:46:23;;;;;;;;;;;;;;;;;;6237207;28;20016;-76
2023/09/07 03:49:24;;;;;;;;;;;;;;;;;;6236295;28;19932;-76
2023/09/07 03:52:26;;;;;;;;;;;;;;;;;;6240412;28;19994;-76
2023/09/07 03:55:26;;;;;;;;;;;;;;;;;;6242075;28;20004;-77
2023/09/07 03:58:26;;;;;;;;;;;;;;;;;;6241366;28;19932;-76
2023/09/07 04:01:27;;;;;;;;;;;;;;;;;;6252443;28;19925;-77
2023/09/07 04:04:27;;;;;;;;;;;;;;;;;;6267444;28;20287;-76
2023/09/07 04:07:27;;;;;;;;;;;;;;;;;;6245892;28;19921;-75
2023/09/07 04:10:27;;;;;;;;;;;;;;;;;;6230134;28;19957;-76
2023/09/07 04:13:28;;;;;;;;;;;;;;;;;;6243439;28;20038;-76
2023/09/07 04:16:29;;;;;;;;;;;;;;;;;;6248694;28;19936;-75
2023/09/07 04:19:29;;;;;;;;;;;;;;;;;;6256992;28;19921;-77
2023/09/07 04:22:29;;;;;;;;;;;;;;;;;;6256889;28;19986;-76
2023/09/07 04:25:29;;;;;;;;;;;;;;;;;;6242015;28;19921;-75
2023/09/07 04:28:29;;;;;;;;;;;;;;;;;;6251508;28;19921;-76
2023/09/07 04:31:29;;;;;;;;;;;;;;;;;;6234569;28;19970;-78
2023/09/07 04:34:30;;;;;;;;;;;;;;;;;;6252197;28;19917;-77
2023/09/07 04:37:30;;;;;;;;;;;;;;;;;;6253545;28;19979;-77
2023/09/07 04:40:30;;;;;;;;;;;;;;;;;;6235266;28;21684;-76
2023/09/07 04:43:30;;;;;;;;;;;;;;;;;;6236215;28;19920;-76
2023/09/07 04:46:30;;;;;;;;;;;;;;;;;;6252744;28;19963;-76
2023/09/07 04:49:30;;;;;;;;;;;;;;;;;;6241880;28;19999;-77
2023/09/07 04:52:31;;;;;;;;;;;;;;;;;;6240598;28;19920;-77
2023/09/07 04:55:31;;;;;;;;;;;;;;;;;;6240212;28;19989;-77
2023/09/07 04:58:31;;;;;;;;;;;;;;;;;;6244349;28;19925;-77
2023/09/07 05:01:32;;;;;;;;;;;;;;;;;;6257859;28;19925;-78
2023/09/07 05:04:32;;;;;;;;;;;;;;;;;;6247329;28;20011;-77
2023/09/07 05:07:32;;;;;;;;;;;;;;;;;;6237366;28;20015;-76
2023/09/07 05:10:33;;;;;;;;;;;;;;;;;;6242295;28;19932;-77
2023/09/07 05:13:33;;;;;;;;;;;;;;;;;;6244218;28;19920;-76
2023/09/07 05:16:33;;;;;;;;;;;;;;;;;;6241017;28;19940;-78
2023/09/07 05:19:34;;;;;;;;;;;;;;;;;;6242804;28;20023;-79
2023/09/07 05:22:39;;;;;;;;;;;;;;;;;;6241812;28;20046;-78
2023/09/07 05:25:39;;;;;;;;;;;;;;;;;;6238081;28;20018;-79
2023/09/07 05:28:39;;;;;;;;;;;;;;;;;;6238285;28;19928;-78
2023/09/07 05:31:40;;;;;;;;;;;;;;;;;;6235723;28;19967;-77
2023/09/07 05:34:41;;;;;;;;;;;;;;;;;;6241021;28;19921;-77
2023/09/07 05:37:42;;;;;;;;;;;;;;;;;;6261025;28;19925;-78
2023/09/07 05:40:42;;;;;;;;;;;;;;;;;;6241396;28;19923;-77
2023/09/07 05:43:42;;;;;;;;;;;;;;;;;;6233086;28;20022;-76
2023/09/07 05:46:42;;;;;;;;;;;;;;;;;;6230943;28;19913;-78
2023/09/07 05:49:42;;;;;;;;;;;;;;;;;;6234035;28;19952;-78
2023/09/07 05:52:44;;;;;;;;;;;;;;;;;;6231281;28;20015;-77
2023/09/07 05:55:44;;;;;;;;;;;;;;;;;;6233202;28;19917;-77
2023/09/07 05:58:44;;;;;;;;;;;;;;;;;;6229864;28;21672;-78
2023/09/07 06:01:44;;;;;;;;;;;;;;;;;;6244477;28;19921;-78
2023/09/07 06:04:44;;;;;;;;;;;;;;;;;;6239862;28;20010;-78
2023/09/07 06:07:44;;;;;;;;;;;;;;;;;;6237655;28;19913;-77
2023/09/07 06:10:45;;;;;;;;;;;;;;;;;;6236555;28;20352;-77
2023/09/07 06:13:46;;;;;;;;;;;;;;;;;;6234000;28;19920;-77
2023/09/07 06:16:46;;;;;;;;;;;;;;;;;;6235779;28;19925;-76
2023/09/07 06:19:48;;;;;;;;;;;;;;;;;;6253206;28;20003;-77
2023/09/07 06:22:49;;;;;;;;;;;;;;;;;;6237950;28;20037;-77
2023/09/07 06:25:49;;;;;;;;;;;;;;;;;;6248660;28;20057;-76
2023/09/07 06:28:49;;;;;;;;;;;;;;;;;;6263851;28;19921;-75
2023/09/07 06:31:49;;;;;;;;;;;;;;;;;;6246401;28;20716;-75
2023/09/07 06:34:50;;;;;;;;;;;;;;;;;;6231758;28;20450;-75
2023/09/07 06:37:50;;;;;;;;;;;;;;;;;;6267844;28;19924;-75
2023/09/07 06:40:50;;;;;;;;;;;;;;;;;;6252570;28;21028;-75
2023/09/07 06:43:50;;;;;;;;;;;;;;;;;;6246719;28;19928;-75
2023/09/07 06:46:50;;;;;;;;;;;;;;;;;;6250553;28;20367;-78
2023/09/07 06:49:50;;;;;;;;;;;;;;;;;;6258138;28;19927;-76
2023/09/07 06:52:51;;;;;;;;;;;;;;;;;;6271438;28;19920;-73
2023/09/07 06:55:51;;;;;;;;;;;;;;;;;;6241428;28;20499;-75
2023/09/07 06:58:51;;;;;;;;;;;;;;;;;;6252505;28;19925;-74
2023/09/07 07:01:51;;;;;;;;;;;;;;;;;;6234868;28;19920;-75
2023/09/07 07:04:51;;;;;;;;;;;;;;;;;;6235173;28;19917;-75
2023/09/07 07:07:51;;;;;;;;;;;;;;;;;;6236225;28;19920;-74
2023/09/07 07:10:52;;;;;;;;;;;;;;;;;;6238492;28;19928;-75
2023/09/07 07:13:52;;;;;;;;;;;;;;;;;;6276345;28;19983;-78
2023/09/07 07:16:53;;;;;;;;;;;;;;;;;;6269580;28;20398;-75
2023/09/07 07:19:54;;;;;;;;;;;;;;;;;;6277254;28;19916;-77
2023/09/07 07:22:54;;;;;;;;;;;;;;;;;;6259541;28;20381;-78
2023/09/07 07:25:54;;;;;;;;;;;;;;;;;;6264148;28;20375;-78
2023/09/07 07:28:54;;;;;;;;;;;;;;;;;;6261058;28;19912;-74
2023/09/07 07:31:54;;;;;;;;;;;;;;;;;;6283079;28;20010;-72
2023/09/07 07:34:54;;;;;;;;;;;;;;;;;;6257335;28;19935;-76
2023/09/07 07:37:54;;;;;;;;;;;;;;;;;;6253495;28;19917;-75
2023/09/07 07:40:55;;;;;;;;;;;;;;;;;;6257064;28;19928;-77
2023/09/07 07:43:55;;;;;;;;;;;;;;;;;;6259999;28;19916;-77
2023/09/07 07:46:55;;;;;;;;;;;;;;;;;;6277425;28;19964;-77
2023/09/07 07:49:55;;;;;;;;;;;;;;;;;;6258270;28;20012;-79
2023/09/07 07:52:55;;;;;;;;;;;;;;;;;;6258423;28;20383;-79
2023/09/07 07:55:55;;;;;;;;;;;;;;;;;;6262762;28;19913;-78
2023/09/07 07:58:56;;;;;;;;;;;;;;;;;;6273603;28;19964;-78
2023/09/07 08:01:56;;;;;;;;;;;;;;;;;;6241718;28;20271;-77
2023/09/07 08:04:56;;;;;;;;;;;;;;;;;;6238723;28;20407;-77
2023/09/07 08:07:57;;;;;;;;;;;;;;;;;;6232786;28;19921;-80
2023/09/07 08:11:00;;;;;;;;;;;;;;;;;;6253807;28;20064;-80
2023/09/07 08:14:01;;;;;;;;;;;;;;;;;;6244137;28;19921;-80
2023/09/07 08:17:03;;;;;;;;;;;;;;;;;;6242359;28;19935;-83
2023/09/07 08:20:03;;;;;;;;;;;;;;;;;;6230802;28;19924;-83
2023/09/07 08:23:07;;;;;;;;;;;;;;;;;;6245381;28;19929;-83
2023/09/07 08:26:09;;;;;;;;;;;;;;;;;;6249590;28;19936;-82
2023/09/07 08:29:10;;;;;;;;;;;;;;;;;;6232707;28;19927;-83
2023/09/07 08:32:11;;;;;;;;;;;;;;;;;;6237002;28;19926;-81
2023/09/07 08:35:16;;;;;;;;;;;;;;;;;;6232713;28;19932;-80
2023/09/07 08:38:17;;;;;;;;;;;;;;;;;;6227783;28;20312;-79
2023/09/07 08:41:18;;;;;;;;;;;;;;;;;;6232612;28;19917;-80
2023/09/07 08:44:21;;;;;;;;;;;;;;;;;;5888610;28;9999840;-81
2023/09/07 08:47:21;;;;;;;;;;;;;;;;;;6243354;28;19917;-81
2023/09/07 08:50:23;;;;;;;;;;;;;;;;;;6232708;28;20702;-81
2023/09/07 08:53:23;;;;;;;;;;;;;;;;;;6245123;28;19971;-81
2023/09/07 08:56:24;;;;;;;;;;;;;;;;;;6234177;28;20368;-82
2023/09/07 08:59:25;;;;;;;;;;;;;;;;;;6234122;28;20011;-81
2023/09/07 09:02:25;;;;;;;;;;;;;;;;;;6253228;28;19917;-81
2023/09/07 09:05:25;;;;;;;;;;;;;;;;;;6259443;28;19941;-81
2023/09/07 09:08:25;;;;;;;;;;;;;;;;;;6277311;28;19916;-80
2023/09/07 09:11:27;;;;;;;;;;;;;;;;;;6256988;28;19917;-81
2023/09/07 09:14:28;;;;;;;;;;;;;;;;;;6257514;28;20272;-81
2023/09/07 09:17:28;;;;;;;;;;;;;;;;;;6252144;28;19925;-80
2023/09/07 09:20:28;;;;;;;;;;;;;;;;;;5917047;28;9999799;-79
2023/09/07 09:23:30;;;;;;;;;;;;;;;;;;5909150;28;10000073;-81
2023/09/07 09:26:30;;;;;;;;;;;;;;;;;;6255283;28;19917;-79
2023/09/07 09:29:30;;;;;;;;;;;;;;;;;;6254846;28;19928;-80
2023/09/07 09:32:31;;;;;;;;;;;;;;;;;;6262810;28;19920;-79
2023/09/07 09:35:31;;;;;;;;;;;;;;;;;;6253413;28;19917;-80
2023/09/07 09:38:31;;;;;;;;;;;;;;;;;;6250550;28;20406;-80
2023/09/07 09:41:32;;;;;;;;;;;;;;;;;;6254988;28;19916;-79
2023/09/07 09:44:32;;;;;;;;;;;;;;;;;;6274560;28;19912;-77
2023/09/07 09:47:32;;;;;;;;;;;;;;;;;;6305666;28;19992;-79
2023/09/07 09:50:37;;;;;;;;;;;;;;;;;;6300829;28;19991;-79
2023/09/07 09:53:38;;;;;;;;;;;;;;;;;;6278926;28;19947;-78
2023/09/07 09:56:38;;;;;;;;;;;;;;;;;;6291504;28;19913;-79
2023/09/07 09:59:39;;;;;;;;;;;;;;;;;;6271435;28;19925;-80
2023/09/07 10:02:39;;;;;;;;;;;;;;;;;;6252542;28;19917;-79
2023/09/07 10:05:40;;;;;;;;;;;;;;;;;;5887518;28;9999880;-79
2023/09/07 10:08:40;;;;;;;;;;;;;;;;;;6244407;28;19917;-79
2023/09/07 10:11:40;;;;;;;;;;;;;;;;;;6242108;28;20592;-80
2023/09/07 10:14:40;;;;;;;;;;;;;;;;;;6256200;28;19937;-80
2023/09/07 10:17:41;;;;;;;;;;;;;;;;;;6254668;28;19921;-79
2023/09/07 10:20:41;;;;;;;;;;;;;;;;;;6270629;28;19912;-79
2023/09/07 10:23:41;;;;;;;;;;;;;;;;;;6273621;28;20115;-79
2023/09/07 10:26:41;;;;;;;;;;;;;;;;;;6274514;28;19921;-79
2023/09/07 10:29:41;;;;;;;;;;;;;;;;;;6264750;28;20682;-78
2023/09/07 10:32:41;;;;;;;;;;;;;;;;;;6255836;28;19917;-78
2023/09/07 10:35:43;;;;;;;;;;;;;;;;;;6260410;28;20309;-80
2023/09/07 10:38:43;;;;;;;;;;;;;;;;;;6239969;28;20011;-80
2023/09/07 10:41:43;;;;;;;;;;;;;;;;;;6233891;28;19914;-79
2023/09/07 10:44:43;;;;;;;;;;;;;;;;;;6241620;28;20445;-80
2023/09/07 10:47:43;;;;;;;;;;;;;;;;;;6242298;28;19921;-80
2023/09/07 10:50:44;;;;;;;;;;;;;;;;;;6243291;28;20280;-77
2023/09/07 10:53:44;;;;;;;;;;;;;;;;;;6254153;28;20374;-78
2023/09/07 10:56:44;;;;;;;;;;;;;;;;;;6251956;28;20459;-79
2023/09/07 10:59:45;;;;;;;;;;;;;;;;;;6263630;28;19948;-79
2023/09/07 11:02:48;;;;;;;;;;;;;;;;;;6272791;28;19909;-80
2023/09/07 11:05:48;;;;;;;;;;;;;;;;;;5952453;28;10000380;-80
2023/09/07 11:08:48;;;;;;;;;;;;;;;;;;6282346;28;19975;-81
2023/09/07 11:11:49;;;;;;;;;;;;;;;;;;6250320;28;19913;-78
2023/09/07 11:14:49;;;;;;;;;;;;;;;;;;6281560;28;19913;-82
2023/09/07 11:17:49;;;;;;;;;;;;;;;;;;6276564;28;19923;-81
2023/09/07 11:20:50;;;;;;;;;;;;;;;;;;6283932;28;19967;-79
2023/09/07 11:23:50;;;;;;;;;;;;;;;;;;6288159;28;20003;-83
2023/09/07 11:26:50;;;;;;;;;;;;;;;;;;6278056;28;19943;-82
2023/09/07 11:29:51;;;;;;;;;;;;;;;;;;6279696;28;20357;-83
2023/09/07 11:32:51;;;;;;;;;;;;;;;;;;6299613;28;19927;-81
2023/09/07 11:35:52;;;;;;;;;;;;;;;;;;6302654;28;20029;-82
2023/09/07 11:38:53;;;;;;;;;;;;;;;;;;6283071;28;19928;-80
2023/09/07 11:41:54;;;;;;;;;;;;;;;;;;6282972;28;19920;-81
2023/09/07 11:44:54;;;;;;;;;;;;;;;;;;6305176;28;19923;-82
2023/09/07 11:47:54;;;;;;;;;;;;;;;;;;6301782;28;20071;-82
2023/09/07 11:50:54;;;;;;;;;;;;;;;;;;6281583;28;19947;-83
2023/09/07 11:53:55;;;;;;;;;;;;;;;;;;6303925;28;20020;-83
2023/09/07 11:56:55;;;;;;;;;;;;;;;;;;6300994;28;20445;-82
2023/09/07 12:00:00;;;;;;;;;;;;;;;;;;6298731;28;19929;-82
2023/09/07 12:03:00;;;;;;;;;;;;;;;;;;6265430;28;20363;-83
2023/09/07 12:06:00;;;;;;;;;;;;;;;;;;6271240;28;19924;-83
2023/09/07 12:09:00;;;;;;;;;;;;;;;;;;6275326;28;19921;-81
2023/09/07 12:12:01;;;;;;;;;;;;;;;;;;6255952;28;19994;-84
2023/09/07 12:15:03;;;;;;;;;;;;;;;;;;6282274;28;19969;-83
2023/09/07 12:18:05;;;;;;;;;;;;;;;;;;6293315;28;20015;-84
2023/09/07 12:21:05;;;;;;;;;;;;;;;;;;6245453;28;20394;-83
2023/09/07 12:24:05;;;;;;;;;;;;;;;;;;6235855;28;19914;-83
2023/09/07 12:27:06;;;;;;;;;;;;;;;;;;6245129;28;20023;-83
2023/09/07 12:30:12;;;;;;;;;;;;;;;;;;6244920;28;20283;-84
2023/09/07 12:33:12;;;;;;;;;;;;;;;;;;6250516;28;19945;-83
2023/09/07 12:36:12;;;;;;;;;;;;;;;;;;6259797;28;19926;-83
2023/09/07 12:39:12;;;;;;;;;;;;;;;;;;6268912;28;20007;-84
2023/09/07 12:42:14;;;;;;;;;;;;;;;;;;6237804;28;19941;-84
2023/09/07 12:45:14;;;;;;;;;;;;;;;;;;6245859;28;20008;-83
2023/09/07 12:48:15;;;;;;;;;;;;;;;;;;6246412;28;19917;-84
2023/09/07 12:51:16;;;;;;;;;;;;;;;;;;6264298;28;20107;-85
2023/09/07 12:54:17;;;;;;;;;;;;;;;;;;6247272;28;19913;-85
2023/09/07 12:57:17;;;;;;;;;;;;;;;;;;6272671;28;20000;-85
2023/09/07 13:00:18;;;;;;;;;;;;;;;;;;6250988;28;19921;-86
2023/09/07 13:03:18;;;;;;;;;;;;;;;;;;6243963;28;19913;-85
2023/09/07 13:06:18;;;;;;;;;;;;;;;;;;6248308;28;19971;-85
2023/09/07 13:09:19;;;;;;;;;;;;;;;;;;6258870;28;19925;-86
2023/09/07 13:12:19;;;;;;;;;;;;;;;;;;6247294;28;19920;-84
2023/09/07 13:15:19;;;;;;;;;;;;;;;;;;6241477;28;19914;-86
2023/09/07 13:18:19;;;;;;;;;;;;;;;;;;6250115;28;19913;-86
2023/09/07 13:21:19;;;;;;;;;;;;;;;;;;6236300;28;19936;-86
2023/09/07 13:24:20;;;;;;;;;;;;;;;;;;6254237;28;20020;-84
2023/09/07 13:27:20;;;;;;;;;;;;;;;;;;6241268;28;19921;-85
2023/09/07 13:30:20;;;;;;;;;;;;;;;;;;6238284;28;19913;-86
2023/09/07 13:33:20;;;;;;;;;;;;;;;;;;6263153;28;20075;-86
2023/09/07 13:36:21;;;;;;;;;;;;;;;;;;6254909;28;19914;-86
2023/09/07 13:39:21;;;;;;;;;;;;;;;;;;6255815;28;19913;-88
2023/09/07 13:42:21;;;;;;;;;;;;;;;;;;6268710;28;19921;-88
2023/09/07 13:45:22;;;;;;;;;;;;;;;;;;6281706;28;19921;-87
2023/09/07 13:48:22;;;;;;;;;;;;;;;;;;6243785;28;19940;-86
2023/09/07 13:51:22;;;;;;;;;;;;;;;;;;6284441;28;19940;-87
2023/09/07 13:54:22;;;;;;;;;;;;;;;;;;6290234;28;19904;-87
2023/09/07 13:57:23;;;;;;;;;;;;;;;;;;6276160;28;20059;-87
2023/09/07 14:00:23;;;;;;;;;;;;;;;;;;6273854;28;19924;-88
2023/09/07 14:03:23;;;;;;;;;;;;;;;;;;6277889;28;20445;-88
2023/09/07 14:06:24;;;;;;;;;;;;;;;;;;6274857;28;19931;-87
2023/09/07 14:09:25;;;;;;;;;;;;;;;;;;6271952;28;19916;-88
2023/09/07 14:12:25;;;;;;;;;;;;;;;;;;6270742;28;19924;-86
2023/09/07 14:15:25;;;;;;;;;;;;;;;;;;5934860;28;10000189;-88
2023/09/07 14:18:25;;;;;;;;;;;;;;;;;;6264408;28;20007;-87
2023/09/07 14:21:25;;;;;;;;;;;;;;;;;;6267787;28;19917;-87
2023/09/07 14:24:25;;;;;;;;;;;;;;;;;;6299605;28;19940;-89
2023/09/07 14:27:26;;;;;;;;;;;;;;;;;;6286929;28;20386;-87
2023/09/07 14:30:26;;;;;;;;;;;;;;;;;;6265830;28;19924;-87
2023/09/07 14:33:26;;;;;;;;;;;;;;;;;;6266791;28;20355;-88
2023/09/07 14:36:27;;;;;;;;;;;;;;;;;;6275814;28;19913;-88
2023/09/07 14:39:27;;;;;;;;;;;;;;;;;;6277686;28;19913;-88
2023/09/07 14:42:27;;;;;;;;;;;;;;;;;;6302402;28;19916;-88
2023/09/07 14:45:27;;;;;;;;;;;;;;;;;;6279345;28;19920;-88
2023/09/07 14:48:27;;;;;;;;;;;;;;;;;;6255025;28;19932;-88
2023/09/07 14:51:27;;;;;;;;;;;;;;;;;;6278755;28;19921;-89
2023/09/07 14:54:28;;;;;;;;;;;;;;;;;;6296357;28;19912;-89
2023/09/07 14:57:28;;;;;;;;;;;;;;;;;;6284699;28;19909;-90
2023/09/07 15:00:32;;;;;;;;;;;;;;;;;;6281315;28;19979;-90
2023/09/07 15:03:32;;;;;;;;;;;;;;;;;;6276900;28;19956;-89
2023/09/07 15:06:33;;;;;;;;;;;;;;;;;;6278623;28;20450;-87
2023/09/07 15:09:33;;;;;;;;;;;;;;;;;;6270038;28;19916;-88
2023/09/07 15:12:33;;;;;;;;;;;;;;;;;;6265350;28;19943;-88
2023/09/07 15:15:36;;;;;;;;;;;;;;;;;;6291433;28;20008;-87
2023/09/07 15:18:37;;;;;;;;;;;;;;;;;;6276180;28;20047;-82
2023/09/07 15:21:37;;;;;;;;;;;;;;;;;;5915964;28;10000139;-82
2023/09/07 15:24:37;;;;;;;;;;;;;;;;;;6282927;28;20383;-82
2023/09/07 15:27:44;;;;;;;;;;;;;;;;;;6269767;28;19925;-83
2023/09/07 15:30:44;;;;;;;;;;;;;;;;;;6273377;28;19948;-83
2023/09/07 15:33:44;;;;;;;;;;;;;;;;;;6288972;28;20023;-85
2023/09/07 15:36:44;;;;;;;;;;;;;;;;;;6277295;28;20394;-84
2023/09/07 15:39:44;;;;;;;;;;;;;;;;;;6276368;28;20344;-84
2023/09/07 15:42:44;;;;;;;;;;;;;;;;;;6281313;28;19908;-82
2023/09/07 15:45:45;;;;;;;;;;;;;;;;;;6300514;28;19950;-84
2023/09/07 15:48:46;;;;;;;;;;;;;;;;;;6281013;28;19924;-82
2023/09/07 15:51:46;;;;;;;;;;;;;;;;;;6278666;28;19913;-83
2023/09/07 15:54:46;;;;;;;;;;;;;;;;;;6315664;28;19935;-82
2023/09/07 15:57:47;;;;;;;;;;;;;;;;;;6330359;28;19921;-84
2023/09/07 16:00:47;;;;;;;;;;;;;;;;;;6273299;28;19921;-83
2023/09/07 16:03:47;;;;;;;;;;;;;;;;;;6254929;28;19991;-83
2023/09/07 16:06:48;;;;;;;;;;;;;;;;;;6268649;28;19936;-82
2023/09/07 16:09:49;;;;;;;;;;;;;;;;;;6277351;28;19936;-82
2023/09/07 16:12:53;;;;;;;;;;;;;;;;;;6258730;28;19920;-82
2023/09/07 16:15:53;;;;;;;;;;;;;;;;;;6244526;28;20351;-82
2023/09/07 16:18:53;;;;;;;;;;;;;;;;;;6284370;28;19928;-82
2023/09/07 16:21:53;;;;;;;;;;;;;;;;;;6275361;28;19965;-82
2023/09/07 16:24:53;;;;;;;;;;;;;;;;;;6269435;28;20028;-81
2023/09/07 16:27:55;;;;;;;;;;;;;;;;;;6236750;28;19925;-81
2023/09/07 16:30:55;;;;;;;;;;;;;;;;;;6238653;28;19923;-82
2023/09/07 16:33:55;;;;;;;;;;;;;;;;;;6241242;28;19913;-80
2023/09/07 16:36:55;;;;;;;;;;;;;;;;;;6242236;28;19915;-82
2023/09/07 16:39:56;;;;;;;;;;;;;;;;;;6249155;28;20051;-81
2023/09/07 16:42:56;;;;;;;;;;;;;;;;;;6266346;28;19909;-81
2023/09/07 16:45:56;;;;;;;;;;;;;;;;;;6239220;28;20012;-80
2023/09/07 16:48:56;;;;;;;;;;;;;;;;;;6265623;28;20004;-80
2023/09/07 16:51:56;;;;;;;;;;;;;;;;;;6245837;28;19913;-80
2023/09/07 16:54:56;;;;;;;;;;;;;;;;;;6239051;28;19913;-81
2023/09/07 16:57:57;;;;;;;;;;;;;;;;;;6248171;28;19913;-81
2023/09/07 17:00:57;;;;;;;;;;;;;;;;;;6263799;28;20010;-80
2023/09/07 17:03:57;;;;;;;;;;;;;;;;;;6274574;28;19928;-80
2023/09/07 17:07:02;;;;;;;;;;;;;;;;;;6238654;28;21883;-81
2023/09/07 17:10:02;;;;;;;;;;;;;;;;;;6243713;28;19916;-80
2023/09/07 17:13:02;;;;;;;;;;;;;;;;;;6256790;28;19924;-81
2023/09/07 17:16:02;;;;;;;;;;;;;;;;;;6283868;28;19963;-80
2023/09/07 17:19:05;;;;;;;;;;;;;;;;;;6268847;28;20366;-80
2023/09/07 17:22:07;;;;;;;;;;;;;;;;;;5919007;28;10000142;-78
2023/09/07 17:25:08;;;;;;;;;;;;;;;;;;6245855;28;19963;-79
2023/09/07 17:28:08;;;;;;;;;;;;;;;;;;6271532;28;19928;-80
2023/09/07 17:31:09;;;;;;;;;;;;;;;;;;6225265;28;19960;-80
2023/09/07 17:34:10;;;;;;;;;;;;;;;;;;6258404;28;19913;-79
2023/09/07 17:37:10;;;;;;;;;;;;;;;;;;6253847;28;19928;-80
2023/09/07 17:40:10;;;;;;;;;;;;;;;;;;6262451;28;19913;-77
2023/09/07 17:43:10;;;;;;;;;;;;;;;;;;6262337;28;20367;-78
2023/09/07 17:46:11;;;;;;;;;;;;;;;;;;6253420;28;19917;-79
2023/09/07 17:49:11;;;;;;;;;;;;;;;;;;6247391;28;19960;-80
2023/09/07 17:52:12;;;;;;;;;;;;;;;;;;6260404;28;19939;-77
2023/09/07 17:55:12;;;;;;;;;;;;;;;;;;6272138;28;19913;-79
2023/09/07 17:58:13;;;;;;;;;;;;;;;;;;6280960;28;19951;-78
2023/09/07 18:01:13;;;;;;;;;;;;;;;;;;6257751;28;20012;-79
2023/09/07 18:04:13;;;;;;;;;;;;;;;;;;6243240;28;19921;-80
2023/09/07 18:07:13;;;;;;;;;;;;;;;;;;6266609;28;19925;-79
2023/09/07 18:10:14;;;;;;;;;;;;;;;;;;6250172;28;19924;-79
2023/09/07 18:13:14;;;;;;;;;;;;;;;;;;6253907;28;19913;-80
2023/09/07 18:16:14;;;;;;;;;;;;;;;;;;6238803;28;19917;-80
2023/09/07 18:19:14;;;;;;;;;;;;;;;;;;6230173;28;19913;-79
2023/09/07 18:22:16;;;;;;;;;;;;;;;;;;6247044;28;19921;-80
2023/09/07 18:25:17;;;;;;;;;;;;;;;;;;6247185;28;20339;-80
2023/09/07 18:28:17;;;;;;;;;;;;;;;;;;6260220;28;19921;-80
2023/09/07 18:31:17;;;;;;;;;;;;;;;;;;6244911;28;20057;-80
2023/09/07 18:34:18;;;;;;;;;;;;;;;;;;6251211;28;19929;-80
2023/09/07 18:37:18;;;;;;;;;;;;;;;;;;6264647;28;20004;-80
2023/09/07 18:40:18;;;;;;;;;;;;;;;;;;6275448;28;19963;-80
2023/09/07 18:43:18;;;;;;;;;;;;;;;;;;6259973;28;19917;-80
2023/09/07 18:46:18;;;;;;;;;;;;;;;;;;6248331;28;19971;-79
2023/09/07 18:49:18;;;;;;;;;;;;;;;;;;6267425;28;20467;-79
2023/09/07 18:52:18;;;;;;;;;;;;;;;;;;6252624;28;20357;-80
2023/09/07 18:55:19;;;;;;;;;;;;;;;;;;6261202;28;19917;-80
2023/09/07 18:58:19;;;;;;;;;;;;;;;;;;6271612;28;19909;-80
2023/09/07 19:01:19;;;;;;;;;;;;;;;;;;6261970;28;19925;-80
2023/09/07 19:04:20;;;;;;;;;;;;;;;;;;6267710;28;20344;-80
2023/09/07 19:07:21;;;;;;;;;;;;;;;;;;6240576;28;19973;-80
2023/09/07 19:10:21;;;;;;;;;;;;;;;;;;6246676;28;19933;-79
2023/09/07 19:13:22;;;;;;;;;;;;;;;;;;5896117;28;10000009;-81
2023/09/07 19:16:23;;;;;;;;;;;;;;;;;;6253684;28;20414;-81
2023/09/07 19:19:27;;;;;;;;;;;;;;;;;;6250972;28;19913;-80
2023/09/07 19:22:27;;;;;;;;;;;;;;;;;;6259735;28;19917;-81
2023/09/07 19:25:27;;;;;;;;;;;;;;;;;;6287494;28;19913;-82
2023/09/07 19:28:27;;;;;;;;;;;;;;;;;;6288319;28;19929;-82
2023/09/07 19:31:27;;;;;;;;;;;;;;;;;;6256821;28;19913;-82
2023/09/07 19:34:29;;;;;;;;;;;;;;;;;;6253845;28;19936;-80
2023/09/07 19:37:32;;;;;;;;;;;;;;;;;;6279852;28;19924;-81
2023/09/07 19:40:34;;;;;;;;;;;;;;;;;;6269477;28;19928;-81
2023/09/07 19:43:34;;;;;;;;;;;;;;;;;;6249639;28;19936;-83
2023/09/07 19:46:35;;;;;;;;;;;;;;;;;;6258708;28;20356;-82
2023/09/07 19:49:36;;;;;;;;;;;;;;;;;;6257401;28;20011;-82
2023/09/07 19:52:36;;;;;;;;;;;;;;;;;;6266033;28;19919;-81
2023/09/07 19:55:36;;;;;;;;;;;;;;;;;;6265890;28;19901;-81
2023/09/07 19:58:36;;;;;;;;;;;;;;;;;;6271026;28;19922;-81
2023/09/07 20:01:37;;;;;;;;;;;;;;;;;;6313396;28;19925;-82
2023/09/07 20:04:37;;;;;;;;;;;;;;;;;;6294627;28;19936;-80
2023/09/07 20:07:40;;;;;;;;;;;;;;;;;;6292978;28;19932;-81
2023/09/07 20:10:40;;;;;;;;;;;;;;;;;;6267666;28;20029;-79
2023/09/07 20:13:41;;;;;;;;;;;;;;;;;;6275214;28;19948;-81
2023/09/07 20:16:41;;;;;;;;;;;;;;;;;;6285178;28;19947;-81
2023/09/07 20:19:42;;;;;;;;;;;;;;;;;;6273250;28;19925;-81
2023/09/07 20:22:43;;;;;;;;;;;;;;;;;;6269351;28;19920;-82
2023/09/07 20:25:43;;;;;;;;;;;;;;;;;;6294954;28;19935;-81
2023/09/07 20:28:47;;;;;;;;;;;;;;;;;;6278125;28;19944;-81